シドニー の空港の天気 - METARとTAF

シドニー国際空港 ( YSSY / SYD ) - オーストラリア ニューサウスウェールズ州、Mascot
飛行場実況気象(Metar)
観測時間03/09 17:30 AEDT (03/09 06:30 UTC)
風向・風速南東 8m/s
視程10km以上
天気現象
全天の4割程度の雲 雲底高度 700m
全天の4割程度の雲 雲底高度 1010m
気温24℃
湿度65%
気圧1013hPa
METARYSSY 090630Z 13015KT 9999 SCT023 SCT033 24/17 Q1013
過去の天気等 Google飛行場航空写真 Wunderground天気予報

過去48時間のMETAR

飛行場予報(TAF)
発表時間: 3/09 16:09 AEDT (3/09 05:09 UTC)
予報対象時間: 9日17時 AEDT ~ 10日23時 AEDT
風向・風速南南東 8m/s
視程10km以上
全天の8割程度の雲 雲底高度 760m
10日1時 AEDT から
風向・風速南南西 4m/s
視程10km以上
少しの雲 雲底高度 610m
全天の8割程度の雲 雲底高度 1070m
10日11時 AEDT から
風向・風速東南東 7m/s
視程10km以上
少しの雲 雲底高度 760m
全天の8割程度の雲 雲底高度 1220m
10日20時 AEDT から
風向・風速東北東 6m/s
視程10km以上
少しの雲 雲底高度 760m
全天の8割程度の雲 雲底高度 1220m
TAF YSSY 090509Z 0906/1012 16015KT 9999 BKN025
FM091400 21008KT 9999 FEW020 BKN035
FM100000 12014KT 9999 FEW025 BKN040
FM100900 06012KT 9999 FEW025 BKN040